sensor_id;sensor_type;location;lat;lon;timestamp;pressure;altitude;pressure_sealevel;temperature;humidity
34034;BME280;63481;52.588;22.472;2023-04-01T00:00:34;98331.65;;;8.25;99.44
34034;BME280;63481;52.588;22.472;2023-04-01T00:01:27;98331.48;;;8.21;99.35
34034;BME280;63481;52.588;22.472;2023-04-01T00:02:20;98331.52;;;8.20;99.29
34034;BME280;63481;52.588;22.472;2023-04-01T00:03:12;98330.04;;;8.20;99.35
34034;BME280;63481;52.588;22.472;2023-04-01T00:04:05;98328.85;;;8.19;99.56
34034;BME280;63481;52.588;22.472;2023-04-01T00:04:57;98328.50;;;8.18;99.76
34034;BME280;63481;52.588;22.472;2023-04-01T00:05:50;98326.34;;;8.18;99.66
34034;BME280;63481;52.588;22.472;2023-04-01T00:06:43;98329.91;;;8.19;99.68
34034;BME280;63481;52.588;22.472;2023-04-01T00:07:39;98326.81;;;8.19;99.86
34034;BME280;63481;52.588;22.472;2023-04-01T00:08:32;98328.48;;;8.17;99.88
34034;BME280;63481;52.588;22.472;2023-04-01T00:09:25;98323.23;;;8.16;99.96
34034;BME280;63481;52.588;22.472;2023-04-01T00:10:18;98321.39;;;8.18;100.00
34034;BME280;63481;52.588;22.472;2023-04-01T00:11:10;98322.45;;;8.15;100.00
34034;BME280;63481;52.588;22.472;2023-04-01T00:12:03;98319.71;;;8.14;99.94
34034;BME280;63481;52.588;22.472;2023-04-01T00:12:56;98319.02;;;8.16;99.96
34034;BME280;63481;52.588;22.472;2023-04-01T00:13:49;98317.35;;;8.14;99.95
34034;BME280;63481;52.588;22.472;2023-04-01T00:14:42;98319.70;;;8.19;99.95
34034;BME280;63481;52.588;22.472;2023-04-01T00:15:35;98319.06;;;8.18;100.00
34034;BME280;63481;52.588;22.472;2023-04-01T00:16:27;98318.94;;;8.20;100.00
34034;BME280;63481;52.588;22.472;2023-04-01T00:17:20;98314.71;;;8.21;100.00
34034;BME280;63481;52.588;22.472;2023-04-01T00:18:13;98314.39;;;8.24;99.99
34034;BME280;63481;52.588;22.472;2023-04-01T00:19:06;98310.70;;;8.27;100.00
34034;BME280;63481;52.588;22.472;2023-04-01T00:19:59;98311.35;;;8.28;99.87
34034;BME280;63481;52.588;22.472;2023-04-01T00:20:53;98307.33;;;8.29;99.96
34034;BME280;63481;52.588;22.472;2023-04-01T00:21:45;98306.77;;;8.25;99.93
34034;BME280;63481;52.588;22.472;2023-04-01T00:22:38;98305.55;;;8.26;99.76
34034;BME280;63481;52.588;22.472;2023-04-01T00:23:31;98303.18;;;8.29;99.96
34034;BME280;63481;52.588;22.472;2023-04-01T00:24:24;98303.54;;;8.27;99.76
34034;BME280;63481;52.588;22.472;2023-04-01T00:25:17;98303.19;;;8.27;99.83
34034;BME280;63481;52.588;22.472;2023-04-01T00:26:10;98306.17;;;8.25;99.86
34034;BME280;63481;52.588;22.472;2023-04-01T00:27:04;98304.30;;;8.23;99.69
34034;BME280;63481;52.588;22.472;2023-04-01T00:27:56;98303.33;;;8.20;99.84
34034;BME280;63481;52.588;22.472;2023-04-01T00:28:50;98301.86;;;8.18;99.93
34034;BME280;63481;52.588;22.472;2023-04-01T00:29:43;98300.14;;;8.21;99.88
34034;BME280;63481;52.588;22.472;2023-04-01T00:30:37;98300.23;;;8.20;99.87
34034;BME280;63481;52.588;22.472;2023-04-01T00:31:30;98298.25;;;8.18;100.00
34034;BME280;63481;52.588;22.472;2023-04-01T00:32:22;98295.66;;;8.16;99.92
34034;BME280;63481;52.588;22.472;2023-04-01T00:33:15;98295.20;;;8.15;99.99
34034;BME280;63481;52.588;22.472;2023-04-01T00:34:08;98296.02;;;8.18;99.99
34034;BME280;63481;52.588;22.472;2023-04-01T00:35:01;98295.80;;;8.15;100.00
34034;BME280;63481;52.588;22.472;2023-04-01T00:35:54;98294.75;;;8.19;100.00
34034;BME280;63481;52.588;22.472;2023-04-01T00:36:47;98293.23;;;8.17;100.00
34034;BME280;63481;52.588;22.472;2023-04-01T00:37:39;98291.43;;;8.17;99.97
34034;BME280;63481;52.588;22.472;2023-04-01T00:38:32;98291.70;;;8.18;99.99
34034;BME280;63481;52.588;22.472;2023-04-01T00:39:24;98292.30;;;8.16;100.00
34034;BME280;63481;52.588;22.472;2023-04-01T00:41:19;98290.54;;;8.15;100.00
34034;BME280;63481;52.588;22.472;2023-04-01T00:42:13;98285.76;;;8.12;100.00
34034;BME280;63481;52.588;22.472;2023-04-01T00:43:13;98287.82;;;8.14;100.00
34034;BME280;63481;52.588;22.472;2023-04-01T00:45:34;98287.69;;;8.16;100.00
34034;BME280;63481;52.588;22.472;2023-04-01T00:46:27;98284.82;;;8.17;100.00
34034;BME280;63481;52.588;22.472;2023-04-01T00:47:20;98285.27;;;8.17;100.00
34034;BME280;63481;52.588;22.472;2023-04-01T00:48:14;98286.39;;;8.20;100.00
34034;BME280;63481;52.588;22.472;2023-04-01T00:49:09;98283.31;;;8.20;100.00
34034;BME280;63481;52.588;22.472;2023-04-01T00:50:01;98282.48;;;8.21;100.00
34034;BME280;63481;52.588;22.472;2023-04-01T00:51:19;98282.23;;;8.17;100.00
34034;BME280;63481;52.588;22.472;2023-04-01T00:52:19;98283.55;;;8.21;100.00
34034;BME280;63481;52.588;22.472;2023-04-01T00:53:16;98277.15;;;8.24;100.00
34034;BME280;63481;52.588;22.472;2023-04-01T00:54:11;98272.66;;;8.22;100.00
34034;BME280;63481;52.588;22.472;2023-04-01T00:55:05;98275.89;;;8.21;100.00
34034;BME280;63481;52.588;22.472;2023-04-01T00:56:11;98273.22;;;8.20;100.00
34034;BME280;63481;52.588;22.472;2023-04-01T00:57:36;98273.80;;;8.18;100.00
34034;BME280;63481;52.588;22.472;2023-04-01T00:58:33;98267.64;;;8.14;100.00
34034;BME280;63481;52.588;22.472;2023-04-01T00:59:37;98268.35;;;8.12;100.00
34034;BME280;63481;52.588;22.472;2023-04-01T01:00:32;98266.89;;;8.08;100.00
34034;BME280;63481;52.588;22.472;2023-04-01T01:01:25;98266.14;;;8.07;100.00
34034;BME280;63481;52.588;22.472;2023-04-01T01:02:18;98266.42;;;8.09;100.00
34034;BME280;63481;52.588;22.472;2023-04-01T01:03:11;98266.84;;;8.08;100.00
34034;BME280;63481;52.588;22.472;2023-04-01T01:04:05;98263.70;;;8.13;100.00
34034;BME280;63481;52.588;22.472;2023-04-01T01:04:58;98263.07;;;8.11;100.00
34034;BME280;63481;52.588;22.472;2023-04-01T01:06:10;98262.25;;;8.07;100.00
34034;BME280;63481;52.588;22.472;2023-04-01T01:08:33;98258.84;;;8.06;100.00
34034;BME280;63481;52.588;22.472;2023-04-01T01:10:33;98260.08;;;8.05;100.00
34034;BME280;63481;52.588;22.472;2023-04-01T01:11:39;98259.23;;;8.04;100.00
34034;BME280;63481;52.588;22.472;2023-04-01T01:12:45;98257.08;;;8.03;100.00
34034;BME280;63481;52.588;22.472;2023-04-01T01:13:48;98259.94;;;8.08;100.00
34034;BME280;63481;52.588;22.472;2023-04-01T01:16:25;98257.73;;;8.07;100.00
34034;BME280;63481;52.588;22.472;2023-04-01T01:24:11;98255.11;;;8.14;100.00
34034;BME280;63481;52.588;22.472;2023-04-01T01:25:22;98255.52;;;8.17;100.00
34034;BME280;63481;52.588;22.472;2023-04-01T01:27:31;98252.97;;;8.20;100.00
34034;BME280;63481;52.588;22.472;2023-04-01T01:33:15;98252.66;;;8.15;100.00
34034;BME280;63481;52.588;22.472;2023-04-01T01:36:31;98249.84;;;8.14;100.00
34034;BME280;63481;52.588;22.472;2023-04-01T01:37:29;98249.00;;;8.11;100.00
34034;BME280;63481;52.588;22.472;2023-04-01T01:38:27;98251.11;;;8.13;100.00
34034;BME280;63481;52.588;22.472;2023-04-01T01:39:31;98251.92;;;8.15;100.00
34034;BME280;63481;52.588;22.472;2023-04-01T01:40:27;98251.53;;;8.13;100.00
34034;BME280;63481;52.588;22.472;2023-04-01T01:41:22;98249.41;;;8.13;100.00
34034;BME280;63481;52.588;22.472;2023-04-01T01:42:18;98251.09;;;8.09;100.00
34034;BME280;63481;52.588;22.472;2023-04-01T01:43:16;98249.23;;;8.12;100.00
34034;BME280;63481;52.588;22.472;2023-04-01T01:44:14;98247.96;;;8.16;100.00
34034;BME280;63481;52.588;22.472;2023-04-01T01:45:09;98249.89;;;8.14;100.00
34034;BME280;63481;52.588;22.472;2023-04-01T01:46:09;98247.66;;;8.13;100.00
34034;BME280;63481;52.588;22.472;2023-04-01T01:47:04;98246.18;;;8.14;100.00
34034;BME280;63481;52.588;22.472;2023-04-01T01:47:59;98245.88;;;8.14;100.00
34034;BME280;63481;52.588;22.472;2023-04-01T01:48:53;98246.10;;;8.15;100.00
34034;BME280;63481;52.588;22.472;2023-04-01T01:49:46;98246.63;;;8.12;100.00
34034;BME280;63481;52.588;22.472;2023-04-01T01:50:39;98243.16;;;8.11;100.00
34034;BME280;63481;52.588;22.472;2023-04-01T01:51:34;98241.38;;;8.09;100.00
34034;BME280;63481;52.588;22.472;2023-04-01T01:52:29;98242.60;;;8.07;100.00
34034;BME280;63481;52.588;22.472;2023-04-01T01:53:22;98241.58;;;8.06;100.00
34034;BME280;63481;52.588;22.472;2023-04-01T01:54:18;98242.06;;;8.06;100.00
34034;BME280;63481;52.588;22.472;2023-04-01T01:55:44;98239.53;;;8.07;100.00
34034;BME280;63481;52.588;22.472;2023-04-01T01:56:38;98239.61;;;8.15;100.00
34034;BME280;63481;52.588;22.472;2023-04-01T01:57:34;98240.92;;;8.20;100.00
34034;BME280;63481;52.588;22.472;2023-04-01T01:58:40;98240.50;;;8.20;100.00
34034;BME280;63481;52.588;22.472;2023-04-01T01:59:38;98238.15;;;8.19;100.00
34034;BME280;63481;52.588;22.472;2023-04-01T02:00:33;98238.95;;;8.17;100.00
34034;BME280;63481;52.588;22.472;2023-04-01T02:01:30;98237.13;;;8.12;100.00
34034;BME280;63481;52.588;22.472;2023-04-01T02:02:28;98240.52;;;8.12;100.00
34034;BME280;63481;52.588;22.472;2023-04-01T02:03:25;98236.16;;;8.12;100.00
34034;BME280;63481;52.588;22.472;2023-04-01T02:04:19;98237.04;;;8.16;100.00
34034;BME280;63481;52.588;22.472;2023-04-01T02:05:20;98234.27;;;8.19;100.00
34034;BME280;63481;52.588;22.472;2023-04-01T02:06:16;98238.14;;;8.18;100.00
34034;BME280;63481;52.588;22.472;2023-04-01T02:07:23;98232.84;;;8.19;100.00
34034;BME280;63481;52.588;22.472;2023-04-01T02:08:57;98232.02;;;8.18;100.00
34034;BME280;63481;52.588;22.472;2023-04-01T02:09:51;98226.44;;;8.14;100.00
34034;BME280;63481;52.588;22.472;2023-04-01T02:10:51;98228.63;;;8.18;100.00
34034;BME280;63481;52.588;22.472;2023-04-01T02:12:07;98228.20;;;8.15;100.00
34034;BME280;63481;52.588;22.472;2023-04-01T02:13:09;98225.07;;;8.15;100.00
34034;BME280;63481;52.588;22.472;2023-04-01T02:14:23;98227.28;;;8.14;100.00
34034;BME280;63481;52.588;22.472;2023-04-01T02:15:20;98227.98;;;8.11;100.00
34034;BME280;63481;52.588;22.472;2023-04-01T02:16:19;98228.09;;;8.11;100.00
34034;BME280;63481;52.588;22.472;2023-04-01T02:17:17;98231.16;;;8.14;100.00
34034;BME280;63481;52.588;22.472;2023-04-01T02:18:12;98229.33;;;8.16;100.00
34034;BME280;63481;52.588;22.472;2023-04-01T02:19:07;98228.77;;;8.14;100.00
34034;BME280;63481;52.588;22.472;2023-04-01T02:20:06;98228.10;;;8.12;100.00
34034;BME280;63481;52.588;22.472;2023-04-01T02:21:03;98230.27;;;8.16;100.00
34034;BME280;63481;52.588;22.472;2023-04-01T02:21:59;98228.46;;;8.11;100.00
34034;BME280;63481;52.588;22.472;2023-04-01T02:22:55;98230.20;;;8.14;100.00
34034;BME280;63481;52.588;22.472;2023-04-01T02:23:50;98230.33;;;8.15;100.00
34034;BME280;63481;52.588;22.472;2023-04-01T02:24:45;98230.55;;;8.16;100.00
34034;BME280;63481;52.588;22.472;2023-04-01T02:25:40;98228.30;;;8.15;100.00
34034;BME280;63481;52.588;22.472;2023-04-01T02:26:34;98228.76;;;8.14;100.00
34034;BME280;63481;52.588;22.472;2023-04-01T02:27:28;98228.36;;;8.12;100.00
34034;BME280;63481;52.588;22.472;2023-04-01T02:28:23;98227.78;;;8.12;100.00
34034;BME280;63481;52.588;22.472;2023-04-01T02:29:19;98225.29;;;8.10;100.00
34034;BME280;63481;52.588;22.472;2023-04-01T02:30:14;98225.15;;;8.08;100.00
34034;BME280;63481;52.588;22.472;2023-04-01T02:31:11;98226.52;;;8.07;100.00
34034;BME280;63481;52.588;22.472;2023-04-01T02:32:05;98224.02;;;8.08;100.00
34034;BME280;63481;52.588;22.472;2023-04-01T02:32:59;98221.71;;;8.08;100.00
34034;BME280;63481;52.588;22.472;2023-04-01T02:33:53;98222.39;;;8.04;100.00
34034;BME280;63481;52.588;22.472;2023-04-01T02:34:47;98221.75;;;8.01;100.00
34034;BME280;63481;52.588;22.472;2023-04-01T02:35:42;98223.46;;;8.00;100.00
34034;BME280;63481;52.588;22.472;2023-04-01T02:36:35;98219.91;;;8.03;100.00
34034;BME280;63481;52.588;22.472;2023-04-01T02:37:29;98218.11;;;8.03;100.00
34034;BME280;63481;52.588;22.472;2023-04-01T02:38:22;98221.97;;;8.04;100.00
34034;BME280;63481;52.588;22.472;2023-04-01T02:39:16;98220.42;;;8.08;100.00
34034;BME280;63481;52.588;22.472;2023-04-01T02:40:12;98219.52;;;8.08;100.00
34034;BME280;63481;52.588;22.472;2023-04-01T02:41:04;98217.41;;;8.05;100.00
34034;BME280;63481;52.588;22.472;2023-04-01T02:41:58;98217.12;;;8.04;100.00
34034;BME280;63481;52.588;22.472;2023-04-01T02:42:51;98218.04;;;8.05;100.00
34034;BME280;63481;52.588;22.472;2023-04-01T02:43:43;98216.70;;;8.04;100.00
34034;BME280;63481;52.588;22.472;2023-04-01T02:44:36;98212.69;;;8.08;100.00
34034;BME280;63481;52.588;22.472;2023-04-01T02:45:29;98211.09;;;8.11;100.00
34034;BME280;63481;52.588;22.472;2023-04-01T02:46:24;98214.16;;;8.11;100.00
34034;BME280;63481;52.588;22.472;2023-04-01T02:47:17;98214.08;;;8.12;100.00
34034;BME280;63481;52.588;22.472;2023-04-01T02:48:10;98212.39;;;8.09;100.00
34034;BME280;63481;52.588;22.472;2023-04-01T02:49:06;98207.20;;;8.07;100.00
34034;BME280;63481;52.588;22.472;2023-04-01T02:49:59;98208.75;;;8.04;100.00
34034;BME280;63481;52.588;22.472;2023-04-01T02:50:52;98209.63;;;8.06;100.00
34034;BME280;63481;52.588;22.472;2023-04-01T02:51:45;98208.45;;;8.06;100.00
34034;BME280;63481;52.588;22.472;2023-04-01T02:52:39;98206.70;;;8.07;100.00
34034;BME280;63481;52.588;22.472;2023-04-01T02:53:32;98209.45;;;8.09;100.00
34034;BME280;63481;52.588;22.472;2023-04-01T02:54:25;98211.66;;;8.10;100.00
34034;BME280;63481;52.588;22.472;2023-04-01T02:55:18;98206.18;;;8.07;100.00
34034;BME280;63481;52.588;22.472;2023-04-01T02:56:12;98206.15;;;8.05;100.00
34034;BME280;63481;52.588;22.472;2023-04-01T02:57:05;98206.83;;;8.04;100.00
34034;BME280;63481;52.588;22.472;2023-04-01T02:57:58;98208.47;;;8.05;100.00
34034;BME280;63481;52.588;22.472;2023-04-01T02:58:53;98207.58;;;8.08;100.00
34034;BME280;63481;52.588;22.472;2023-04-01T02:59:46;98205.71;;;8.08;100.00
34034;BME280;63481;52.588;22.472;2023-04-01T03:00:40;98205.51;;;8.04;100.00
34034;BME280;63481;52.588;22.472;2023-04-01T03:01:33;98208.27;;;8.05;100.00
34034;BME280;63481;52.588;22.472;2023-04-01T03:02:26;98206.13;;;8.07;100.00
34034;BME280;63481;52.588;22.472;2023-04-01T03:03:19;98209.71;;;8.06;100.00
34034;BME280;63481;52.588;22.472;2023-04-01T03:04:13;98212.19;;;8.07;100.00
34034;BME280;63481;52.588;22.472;2023-04-01T03:05:06;98215.19;;;8.06;100.00
34034;BME280;63481;52.588;22.472;2023-04-01T03:06:11;98214.33;;;8.05;100.00
34034;BME280;63481;52.588;22.472;2023-04-01T03:07:04;98214.05;;;8.07;100.00
34034;BME280;63481;52.588;22.472;2023-04-01T03:07:57;98212.96;;;8.09;100.00
34034;BME280;63481;52.588;22.472;2023-04-01T03:08:50;98216.25;;;8.11;100.00
34034;BME280;63481;52.588;22.472;2023-04-01T03:09:43;98217.84;;;8.12;100.00
34034;BME280;63481;52.588;22.472;2023-04-01T03:10:36;98216.10;;;8.09;100.00
34034;BME280;63481;52.588;22.472;2023-04-01T03:11:30;98213.40;;;8.09;100.00
34034;BME280;63481;52.588;22.472;2023-04-01T03:12:23;98212.77;;;8.09;100.00
34034;BME280;63481;52.588;22.472;2023-04-01T03:13:17;98214.09;;;8.10;100.00
34034;BME280;63481;52.588;22.472;2023-04-01T03:14:10;98214.91;;;8.11;100.00
34034;BME280;63481;52.588;22.472;2023-04-01T03:15:04;98212.20;;;8.08;100.00
34034;BME280;63481;52.588;22.472;2023-04-01T03:15:57;98213.27;;;8.08;100.00
34034;BME280;63481;52.588;22.472;2023-04-01T03:16:51;98211.07;;;8.10;100.00
34034;BME280;63481;52.588;22.472;2023-04-01T03:17:44;98213.42;;;8.08;100.00
34034;BME280;63481;52.588;22.472;2023-04-01T03:18:37;98210.08;;;8.05;100.00
34034;BME280;63481;52.588;22.472;2023-04-01T03:19:31;98210.95;;;8.06;100.00
34034;BME280;63481;52.588;22.472;2023-04-01T03:20:24;98211.48;;;8.09;100.00
34034;BME280;63481;52.588;22.472;2023-04-01T03:21:20;98211.59;;;8.12;100.00
34034;BME280;63481;52.588;22.472;2023-04-01T03:22:13;98210.76;;;8.10;100.00
34034;BME280;63481;52.588;22.472;2023-04-01T03:23:07;98206.27;;;8.11;100.00
34034;BME280;63481;52.588;22.472;2023-04-01T03:23:59;98206.02;;;8.09;100.00
34034;BME280;63481;52.588;22.472;2023-04-01T03:24:53;98208.54;;;8.10;100.00
34034;BME280;63481;52.588;22.472;2023-04-01T03:25:47;98204.82;;;8.11;100.00
34034;BME280;63481;52.588;22.472;2023-04-01T03:26:40;98204.65;;;8.10;100.00
34034;BME280;63481;52.588;22.472;2023-04-01T03:27:34;98206.18;;;8.09;100.00
34034;BME280;63481;52.588;22.472;2023-04-01T03:28:28;98206.59;;;8.06;100.00
34034;BME280;63481;52.588;22.472;2023-04-01T03:29:20;98203.54;;;8.08;100.00
34034;BME280;63481;52.588;22.472;2023-04-01T03:30:13;98205.14;;;8.05;100.00
34034;BME280;63481;52.588;22.472;2023-04-01T03:31:11;98203.61;;;8.03;100.00
34034;BME280;63481;52.588;22.472;2023-04-01T03:32:07;98204.36;;;8.03;100.00
34034;BME280;63481;52.588;22.472;2023-04-01T03:32:59;98204.80;;;8.07;100.00
34034;BME280;63481;52.588;22.472;2023-04-01T03:33:52;98204.86;;;8.07;100.00
34034;BME280;63481;52.588;22.472;2023-04-01T03:34:45;98202.11;;;8.10;100.00
34034;BME280;63481;52.588;22.472;2023-04-01T03:35:38;98204.17;;;8.09;100.00
34034;BME280;63481;52.588;22.472;2023-04-01T03:36:32;98203.98;;;8.08;100.00
34034;BME280;63481;52.588;22.472;2023-04-01T03:37:25;98203.91;;;8.08;100.00
34034;BME280;63481;52.588;22.472;2023-04-01T03:38:18;98207.15;;;8.05;100.00
34034;BME280;63481;52.588;22.472;2023-04-01T03:39:12;98205.39;;;8.07;100.00
34034;BME280;63481;52.588;22.472;2023-04-01T03:40:07;98208.94;;;8.07;100.00
34034;BME280;63481;52.588;22.472;2023-04-01T03:41:01;98208.95;;;8.11;100.00
34034;BME280;63481;52.588;22.472;2023-04-01T03:41:54;98206.61;;;8.10;100.00
34034;BME280;63481;52.588;22.472;2023-04-01T03:42:48;98208.66;;;8.09;100.00
34034;BME280;63481;52.588;22.472;2023-04-01T03:43:40;98208.88;;;8.09;100.00
34034;BME280;63481;52.588;22.472;2023-04-01T03:44:33;98206.89;;;8.08;100.00
34034;BME280;63481;52.588;22.472;2023-04-01T03:45:26;98209.83;;;8.06;100.00
34034;BME280;63481;52.588;22.472;2023-04-01T03:46:19;98207.14;;;8.03;100.00
34034;BME280;63481;52.588;22.472;2023-04-01T03:47:12;98210.92;;;8.04;100.00
34034;BME280;63481;52.588;22.472;2023-04-01T03:48:05;98210.73;;;8.06;100.00
34034;BME280;63481;52.588;22.472;2023-04-01T03:48:57;98214.34;;;8.05;100.00
34034;BME280;63481;52.588;22.472;2023-04-01T03:49:50;98213.99;;;8.07;100.00
34034;BME280;63481;52.588;22.472;2023-04-01T03:50:43;98214.80;;;8.07;100.00
34034;BME280;63481;52.588;22.472;2023-04-01T03:51:36;98215.70;;;8.05;100.00
34034;BME280;63481;52.588;22.472;2023-04-01T03:52:29;98219.94;;;8.09;100.00
34034;BME280;63481;52.588;22.472;2023-04-01T03:53:21;98217.92;;;8.07;100.00
34034;BME280;63481;52.588;22.472;2023-04-01T03:54:14;98217.05;;;8.09;100.00
34034;BME280;63481;52.588;22.472;2023-04-01T03:55:08;98219.69;;;8.11;100.00
34034;BME280;63481;52.588;22.472;2023-04-01T03:56:08;98219.98;;;8.09;100.00
34034;BME280;63481;52.588;22.472;2023-04-01T03:57:01;98218.92;;;8.09;100.00
34034;BME280;63481;52.588;22.472;2023-04-01T03:57:54;98217.92;;;8.11;100.00
34034;BME280;63481;52.588;22.472;2023-04-01T03:58:47;98220.40;;;8.09;100.00
34034;BME280;63481;52.588;22.472;2023-04-01T03:59:39;98219.98;;;8.09;100.00
34034;BME280;63481;52.588;22.472;2023-04-01T04:00:32;98220.88;;;8.12;100.00
34034;BME280;63481;52.588;22.472;2023-04-01T04:01:25;98220.42;;;8.11;100.00
34034;BME280;63481;52.588;22.472;2023-04-01T04:02:20;98222.92;;;8.11;100.00
34034;BME280;63481;52.588;22.472;2023-04-01T04:03:13;98221.80;;;8.17;100.00
34034;BME280;63481;52.588;22.472;2023-04-01T04:04:05;98227.20;;;8.16;100.00
34034;BME280;63481;52.588;22.472;2023-04-01T04:04:58;98225.18;;;8.12;100.00
34034;BME280;63481;52.588;22.472;2023-04-01T04:05:53;98227.73;;;8.09;100.00
34034;BME280;63481;52.588;22.472;2023-04-01T04:06:46;98223.81;;;8.10;100.00
34034;BME280;63481;52.588;22.472;2023-04-01T04:07:38;98226.89;;;8.13;100.00
34034;BME280;63481;52.588;22.472;2023-04-01T04:08:33;98225.85;;;8.11;100.00
34034;BME280;63481;52.588;22.472;2023-04-01T04:09:25;98228.04;;;8.12;100.00
34034;BME280;63481;52.588;22.472;2023-04-01T04:10:19;98229.59;;;8.13;100.00
34034;BME280;63481;52.588;22.472;2023-04-01T04:11:11;98232.00;;;8.10;100.00
34034;BME280;63481;52.588;22.472;2023-04-01T04:12:06;98233.46;;;8.12;100.00
34034;BME280;63481;52.588;22.472;2023-04-01T04:12:59;98232.40;;;8.12;100.00
34034;BME280;63481;52.588;22.472;2023-04-01T04:13:52;98233.34;;;8.15;100.00
34034;BME280;63481;52.588;22.472;2023-04-01T04:14:44;98233.73;;;8.16;100.00
34034;BME280;63481;52.588;22.472;2023-04-01T04:15:38;98237.48;;;8.17;100.00
34034;BME280;63481;52.588;22.472;2023-04-01T04:16:34;98238.63;;;8.17;100.00
34034;BME280;63481;52.588;22.472;2023-04-01T04:17:28;98237.96;;;8.17;100.00
34034;BME280;63481;52.588;22.472;2023-04-01T04:18:21;98238.98;;;8.18;100.00
34034;BME280;63481;52.588;22.472;2023-04-01T04:19:13;98238.85;;;8.16;100.00
34034;BME280;63481;52.588;22.472;2023-04-01T04:20:06;98237.91;;;8.14;100.00
34034;BME280;63481;52.588;22.472;2023-04-01T04:21:00;98241.32;;;8.12;100.00
34034;BME280;63481;52.588;22.472;2023-04-01T04:21:52;98242.53;;;8.14;100.00
34034;BME280;63481;52.588;22.472;2023-04-01T04:22:45;98241.05;;;8.12;100.00
34034;BME280;63481;52.588;22.472;2023-04-01T04:23:37;98241.95;;;8.11;100.00
34034;BME280;63481;52.588;22.472;2023-04-01T04:24:31;98247.45;;;8.11;100.00
34034;BME280;63481;52.588;22.472;2023-04-01T04:25:28;98246.70;;;8.10;100.00
34034;BME280;63481;52.588;22.472;2023-04-01T04:26:21;98248.02;;;8.13;100.00
34034;BME280;63481;52.588;22.472;2023-04-01T04:27:20;98247.68;;;8.15;100.00
34034;BME280;63481;52.588;22.472;2023-04-01T04:28:34;98250.55;;;8.15;100.00
34034;BME280;63481;52.588;22.472;2023-04-01T04:29:27;98248.90;;;8.14;100.00
34034;BME280;63481;52.588;22.472;2023-04-01T04:30:21;98245.05;;;8.11;100.00
34034;BME280;63481;52.588;22.472;2023-04-01T04:31:22;98247.48;;;8.10;100.00
34034;BME280;63481;52.588;22.472;2023-04-01T04:32:15;98245.53;;;8.08;100.00
34034;BME280;63481;52.588;22.472;2023-04-01T04:33:09;98249.55;;;8.09;100.00
34034;BME280;63481;52.588;22.472;2023-04-01T04:34:02;98249.39;;;8.09;100.00
34034;BME280;63481;52.588;22.472;2023-04-01T04:34:57;98248.80;;;8.09;100.00
34034;BME280;63481;52.588;22.472;2023-04-01T04:35:51;98249.92;;;8.07;100.00
34034;BME280;63481;52.588;22.472;2023-04-01T04:36:45;98248.50;;;8.08;100.00
34034;BME280;63481;52.588;22.472;2023-04-01T04:37:38;98248.77;;;8.07;100.00
34034;BME280;63481;52.588;22.472;2023-04-01T04:38:31;98251.23;;;8.08;100.00
34034;BME280;63481;52.588;22.472;2023-04-01T04:39:26;98251.86;;;8.08;100.00
34034;BME280;63481;52.588;22.472;2023-04-01T04:40:19;98250.03;;;8.07;100.00
34034;BME280;63481;52.588;22.472;2023-04-01T04:41:17;98252.14;;;8.06;100.00
34034;BME280;63481;52.588;22.472;2023-04-01T04:42:12;98250.72;;;8.12;100.00
34034;BME280;63481;52.588;22.472;2023-04-01T04:43:06;98257.23;;;8.14;100.00
34034;BME280;63481;52.588;22.472;2023-04-01T04:43:59;98254.10;;;8.15;100.00
34034;BME280;63481;52.588;22.472;2023-04-01T04:44:53;98258.15;;;8.15;100.00
34034;BME280;63481;52.588;22.472;2023-04-01T04:45:46;98255.66;;;8.15;100.00
34034;BME280;63481;52.588;22.472;2023-04-01T04:46:39;98257.04;;;8.18;100.00
34034;BME280;63481;52.588;22.472;2023-04-01T04:47:37;98256.92;;;8.18;100.00
34034;BME280;63481;52.588;22.472;2023-04-01T04:48:31;98255.88;;;8.18;100.00
34034;BME280;63481;52.588;22.472;2023-04-01T04:49:24;98257.28;;;8.20;100.00
34034;BME280;63481;52.588;22.472;2023-04-01T04:50:17;98257.32;;;8.19;100.00
34034;BME280;63481;52.588;22.472;2023-04-01T04:51:15;98255.08;;;8.18;100.00
34034;BME280;63481;52.588;22.472;2023-04-01T04:52:08;98254.96;;;8.17;100.00
34034;BME280;63481;52.588;22.472;2023-04-01T04:53:02;98255.41;;;8.13;100.00
34034;BME280;63481;52.588;22.472;2023-04-01T04:53:58;98258.92;;;8.14;100.00
34034;BME280;63481;52.588;22.472;2023-04-01T04:54:59;98260.54;;;8.15;100.00
34034;BME280;63481;52.588;22.472;2023-04-01T04:55:53;98261.02;;;8.11;100.00
34034;BME280;63481;52.588;22.472;2023-04-01T04:57:00;98263.83;;;8.15;100.00
34034;BME280;63481;52.588;22.472;2023-04-01T04:57:55;98261.47;;;8.16;100.00
34034;BME280;63481;52.588;22.472;2023-04-01T04:58:49;98263.50;;;8.17;100.00
34034;BME280;63481;52.588;22.472;2023-04-01T04:59:45;98265.33;;;8.19;100.00
34034;BME280;63481;52.588;22.472;2023-04-01T05:00:43;98265.09;;;8.20;100.00
34034;BME280;63481;52.588;22.472;2023-04-01T05:01:44;98266.28;;;8.22;100.00
34034;BME280;63481;52.588;22.472;2023-04-01T05:02:38;98271.20;;;8.21;100.00
34034;BME280;63481;52.588;22.472;2023-04-01T05:03:31;98268.70;;;8.21;100.00
34034;BME280;63481;52.588;22.472;2023-04-01T05:04:24;98266.70;;;8.21;100.00
34034;BME280;63481;52.588;22.472;2023-04-01T05:05:18;98264.41;;;8.21;100.00
34034;BME280;63481;52.588;22.472;2023-04-01T05:06:13;98264.42;;;8.24;100.00
34034;BME280;63481;52.588;22.472;2023-04-01T05:07:06;98268.98;;;8.24;100.00
34034;BME280;63481;52.588;22.472;2023-04-01T05:07:59;98268.62;;;8.22;100.00
34034;BME280;63481;52.588;22.472;2023-04-01T05:08:52;98265.73;;;8.21;100.00
34034;BME280;63481;52.588;22.472;2023-04-01T05:09:44;98269.84;;;8.22;100.00
34034;BME280;63481;52.588;22.472;2023-04-01T05:10:38;98270.27;;;8.24;100.00